Caribbean Princess — ZCDG8 — position and weather

sailwx.info

Track history (hours):
 
Tides and Currents Weather Stations Pressure Air Temp Water Temp Dewpoint Dewpoint Depression Visibility Wind Speed Wind Dir Waves Ship Positions

Caribbean Princess

Operator: Princess Cruises

Last reported at 2019-Aug-20 05:18 UTC. Time now 2019-Aug-20 10:21 UTC.
Position N 40°23' W 072°35'.

Type: Passenger vessel. MMSI: 310423000.

Date/timePositionNaut miles runAvg speedWind from/ knotsBaromVisibWave heightAir tempDewpointWater temp
2019-Aug-20 05:18N 40°23' W 072°35'3020.0
2019-Aug-20 03:49N 40°22' W 073°14'1619.6
2019-Aug-20 02:59N 40°25' W 073°35'918.4
2019-Aug-20 02:31N 40°26' W 073°47'814.3
2019-Aug-20 01:58N 40°30' W 073°56'714.0
2019-Aug-20 01:30N 40°34' W 074°02'611.4
2019-Aug-20 01:00N 40°40' W 074°03'2 3.6
2019-Aug-20 00:29N 40°41' W 074°01'0 0.0
2019-Aug-19 23:59N 40°41' W 074°01'0 0.0
2019-Aug-19 23:29N 40°41' W 074°01'0 0.0
2019-Aug-19 22:59N 40°41' W 074°01'0 0.0
2019-Aug-19 22:29N 40°41' W 074°01'0 0.0
2019-Aug-19 21:59N 40°41' W 074°01'0 0.0
2019-Aug-19 21:29N 40°41' W 074°01'0 0.0
2019-Aug-19 20:59N 40°41' W 074°01'0 0.0
2019-Aug-19 20:29N 40°41' W 074°01'0 0.0
2019-Aug-19 19:59N 40°41' W 074°01'0 0.0
2019-Aug-19 19:29N 40°41' W 074°01'0 0.0
2019-Aug-19 18:59N 40°41' W 074°01'0 0.0
2019-Aug-19 18:29N 40°41' W 074°01'0 0.0
2019-Aug-19 17:59N 40°41' W 074°01'0 0.0
2019-Aug-19 17:29N 40°41' W 074°01'0 0.0
2019-Aug-19 16:59N 40°41' W 074°01'0 0.0
2019-Aug-19 16:29N 40°41' W 074°01'0 0.0
2019-Aug-19 15:59N 40°41' W 074°01'0 0.0
2019-Aug-19 15:29N 40°41' W 074°01'0 0.0
2019-Aug-19 14:59N 40°41' W 074°01'0 0.0
2019-Aug-19 14:29N 40°41' W 074°01'0 0.0
2019-Aug-19 13:59N 40°41' W 074°01'0 0.0
2019-Aug-19 13:29N 40°41' W 074°01'0 0.0
2019-Aug-19 12:59N 40°41' W 074°01'0 0.0
2019-Aug-19 12:29N 40°41' W 074°01'0 0.0
2019-Aug-19 11:59N 40°41' W 074°01'0 0.0
2019-Aug-19 11:29N 40°41' W 074°01'0 0.0
2019-Aug-19 10:59N 40°41' W 074°01'0 0.0
2019-Aug-19 10:30N 40°41' W 074°01'1 1.9
2019-Aug-19 10:00N 40°41' W 074°02'4 8.4
2019-Aug-19 09:30N 40°36' W 074°03'612.6
2019-Aug-19 09:00N 40°31' W 073°59'714.6
2019-Aug-19 08:30N 40°28' W 073°50'5 9.5
2019-Aug-19 08:00N 40°27' W 073°44'5 9.6
2019-Aug-19 07:30N 40°28' W 073°37'611.5
2019-Aug-19 07:00N 40°28' W 073°30'611.5
2019-Aug-19 06:30N 40°29' W 073°22'612.2
2019-Aug-19 06:01N 40°29' W 073°14'1112.1
2019-Aug-19 05:04N 40°30' W 072°60'112.0
2019-Aug-19 05:00N 40°30' W 072°59'1112.3
2019-Aug-19 04:04N 40°30' W 072°44'2212.1
2019-Aug-19 02:17N 40°31' W 072°15'711.9
2019-Aug-19 01:42N 40°31' W 072°06'312.0
2019-Aug-19 01:27N 40°32' W 072°02'512.0
2019-Aug-19 01:00N 40°32' W 071°55'812.1
2019-Aug-19 00:22N 40°32' W 071°45'412.2
2019-Aug-19 00:00N 40°32' W 071°39'10812.0
2019-Aug-18 15:00N 40°18' W 069°18'4210.6 320 / 71016.5 2.2 25.023.624.0
2019-Aug-18 11:00N 41°00' W 069°12'5313.3 310 / 101016.0 19.519.514.0
2019-Aug-18 07:00N 41°48' W 069°42'5814.9 210 / 181015.8 19.518.820.0
2019-Aug-18 03:05N 42°22' W 070°46'113.4
2019-Aug-18 03:00N 42°22' W 070°47'611.4
2019-Aug-18 02:30N 42°22' W 070°55'2 0.1
2019-Aug-17 09:16N 42°23' W 070°53'311.5
2019-Aug-17 09:00N 42°24' W 070°50'2613.0
2019-Aug-17 07:00N 42°36' W 070°18'5110.8 180 / 131018.210.8 19.017.519.0
2019-Aug-17 02:14N 43°26' W 070°05'1561.7
2019-Aug-17 02:00N 43°12' W 070°00'21 1.6 180 / 101018.7 5.4 19.017.520.0
2019-Aug-16 12:45N 43°33' W 070°07'3817.4
2019-Aug-16 10:32N 43°24' W 069°15'220.7
2019-Aug-16 10:27N 43°24' W 069°13'1020.5
2019-Aug-16 09:59N 43°23' W 068°59'1020.7
2019-Aug-16 09:29N 43°22' W 068°45'1020.2
2019-Aug-16 09:00N 43°21' W 068°32'1020.2
2019-Aug-16 08:30N 43°20' W 068°18'1120.3
2019-Aug-16 07:57N 43°19' W 068°03'2525.9
2019-Aug-16 07:00N 43°12' W 067°30'8817.6 180 / 51018.5 5.4 17.015.420.0
2019-Aug-16 02:00N 43°06' W 065°30'11722.3 320 / 71018.8 0.3 14.014.0 9.0
2019-Aug-15 20:46N 44°23' W 063°28'618.7
2019-Aug-15 20:26N 44°29' W 063°30'613.1
2019-Aug-15 20:00N 44°34' W 063°32'4 8.9
2019-Aug-15 19:30N 44°38' W 063°34'0 0.4
2019-Aug-15 19:00N 44°38' W 063°34'0 0.0
2019-Aug-15 18:30N 44°38' W 063°34'0 0.0
2019-Aug-15 18:00N 44°38' W 063°34'0 0.0
2019-Aug-15 17:30N 44°38' W 063°34'0 0.0
2019-Aug-15 17:00N 44°38' W 063°34'0 0.0
2019-Aug-15 16:30N 44°38' W 063°34'0 0.0
2019-Aug-15 16:00N 44°38' W 063°34'0 0.0
2019-Aug-15 15:30N 44°38' W 063°34'0 0.0
2019-Aug-15 15:00N 44°38' W 063°34'0 0.0
2019-Aug-15 14:30N 44°38' W 063°34'0 0.0
2019-Aug-15 14:00N 44°38' W 063°34'0 0.0
2019-Aug-15 13:30N 44°38' W 063°34'0 0.0
2019-Aug-15 13:00N 44°38' W 063°34'0 0.0
2019-Aug-15 12:30N 44°38' W 063°34'0 0.0
2019-Aug-15 12:00N 44°38' W 063°34'0 0.0
2019-Aug-15 11:30N 44°38' W 063°34'0 0.0
2019-Aug-15 11:00N 44°38' W 063°34'0 0.0
2019-Aug-15 10:30N 44°38' W 063°34'0 0.0
2019-Aug-15 10:00N 44°38' W 063°34'0 0.0
2019-Aug-15 09:30N 44°38' W 063°34'2 4.9
2019-Aug-15 09:00N 44°36' W 063°32'611.6
2019-Aug-15 08:30N 44°31' W 063°30'510.5
2019-Aug-15 08:01N 44°28' W 063°24'917.7
2019-Aug-15 07:30N 44°27' W 063°11'918.1
2019-Aug-15 07:00N 44°28' W 062°59'1018.1
2019-Aug-15 06:29N 44°28' W 062°45'1319.7
2019-Aug-15 05:49N 44°32' W 062°28'620.6
2019-Aug-15 05:31N 44°35' W 062°20'1020.6
2019-Aug-15 05:01N 44°38' W 062°06'1020.5
2019-Aug-15 04:31N 44°42' W 061°53'1020.4
2019-Aug-15 04:00N 44°46' W 061°40'2220.0
2019-Aug-15 02:53N 44°55' W 061°10'2919.7
2019-Aug-15 01:26N 45°11' W 060°37'100 2.1
2019-Aug-13 02:00N 46°48' W 061°12'25414.9 230 / 221006.610.8
2019-Aug-12 09:00N 49°12' W 066°24'   250 / 221003.810.8 16.012.713.0
Track history (hours):
 
Tides and Currents Weather Stations Pressure Air Temp Water Temp Dewpoint Dewpoint Depression Visibility Wind Speed Wind Dir Waves Ship Positions

Caribbean Princess

Operator: Princess Cruises

Last reported at 2019-Aug-20 05:18 UTC. Time now 2019-Aug-20 10:21 UTC.
Position N 40°23' W 072°35'.

Type: Passenger vessel. MMSI: 310423000.

Date/timePositionNaut miles runAvg speedWind from/ knotsBaromVisibWave heightAir tempDewpointWater temp
2019-Aug-20 05:18N 40°23' W 072°35'3020.0
2019-Aug-20 03:49N 40°22' W 073°14'1619.6
2019-Aug-20 02:59N 40°25' W 073°35'918.4
2019-Aug-20 02:31N 40°26' W 073°47'814.3
2019-Aug-20 01:58N 40°30' W 073°56'714.0
2019-Aug-20 01:30N 40°34' W 074°02'611.4
2019-Aug-20 01:00N 40°40' W 074°03'2 3.6
2019-Aug-20 00:29N 40°41' W 074°01'0 0.0
2019-Aug-19 23:59N 40°41' W 074°01'0 0.0
2019-Aug-19 23:29N 40°41' W 074°01'0 0.0
2019-Aug-19 22:59N 40°41' W 074°01'0 0.0
2019-Aug-19 22:29N 40°41' W 074°01'0 0.0
2019-Aug-19 21:59N 40°41' W 074°01'0 0.0
2019-Aug-19 21:29N 40°41' W 074°01'0 0.0
2019-Aug-19 20:59N 40°41' W 074°01'0 0.0
2019-Aug-19 20:29N 40°41' W 074°01'0 0.0
2019-Aug-19 19:59N 40°41' W 074°01'0 0.0
2019-Aug-19 19:29N 40°41' W 074°01'0 0.0
2019-Aug-19 18:59N 40°41' W 074°01'0 0.0
2019-Aug-19 18:29N 40°41' W 074°01'0 0.0
2019-Aug-19 17:59N 40°41' W 074°01'0 0.0
2019-Aug-19 17:29N 40°41' W 074°01'0 0.0
2019-Aug-19 16:59N 40°41' W 074°01'0 0.0
2019-Aug-19 16:29N 40°41' W 074°01'0 0.0
2019-Aug-19 15:59N 40°41' W 074°01'0 0.0
2019-Aug-19 15:29N 40°41' W 074°01'0 0.0
2019-Aug-19 14:59N 40°41' W 074°01'0 0.0
2019-Aug-19 14:29N 40°41' W 074°01'0 0.0
2019-Aug-19 13:59N 40°41' W 074°01'0 0.0
2019-Aug-19 13:29N 40°41' W 074°01'0 0.0
2019-Aug-19 12:59N 40°41' W 074°01'0 0.0
2019-Aug-19 12:29N 40°41' W 074°01'0 0.0
2019-Aug-19 11:59N 40°41' W 074°01'0 0.0
2019-Aug-19 11:29N 40°41' W 074°01'0 0.0
2019-Aug-19 10:59N 40°41' W 074°01'0 0.0
2019-Aug-19 10:30N 40°41' W 074°01'1 1.9
2019-Aug-19 10:00N 40°41' W 074°02'4 8.4
2019-Aug-19 09:30N 40°36' W 074°03'612.6
2019-Aug-19 09:00N 40°31' W 073°59'714.6
2019-Aug-19 08:30N 40°28' W 073°50'5 9.5
2019-Aug-19 08:00N 40°27' W 073°44'5 9.6
2019-Aug-19 07:30N 40°28' W 073°37'611.5
2019-Aug-19 07:00N 40°28' W 073°30'611.5
2019-Aug-19 06:30N 40°29' W 073°22'612.2
2019-Aug-19 06:01N 40°29' W 073°14'1112.1
2019-Aug-19 05:04N 40°30' W 072°60'112.0
2019-Aug-19 05:00N 40°30' W 072°59'1112.3
2019-Aug-19 04:04N 40°30' W 072°44'2212.1
2019-Aug-19 02:17N 40°31' W 072°15'711.9
2019-Aug-19 01:42N 40°31' W 072°06'312.0
2019-Aug-19 01:27N 40°32' W 072°02'512.0
2019-Aug-19 01:00N 40°32' W 071°55'812.1
2019-Aug-19 00:22N 40°32' W 071°45'412.2
2019-Aug-19 00:00N 40°32' W 071°39'10812.0
2019-Aug-18 15:00N 40°18' W 069°18'4210.6 320 / 71016.5 2.2 25.023.624.0
2019-Aug-18 11:00N 41°00' W 069°12'5313.3 310 / 101016.0 19.519.514.0
2019-Aug-18 07:00N 41°48' W 069°42'5814.9 210 / 181015.8 19.518.820.0
2019-Aug-18 03:05N 42°22' W 070°46'113.4
2019-Aug-18 03:00N 42°22' W 070°47'611.4
2019-Aug-18 02:30N 42°22' W 070°55'2 0.1
2019-Aug-17 09:16N 42°23' W 070°53'311.5
2019-Aug-17 09:00N 42°24' W 070°50'2613.0
2019-Aug-17 07:00N 42°36' W 070°18'5110.8 180 / 131018.210.8 19.017.519.0
2019-Aug-17 02:14N 43°26' W 070°05'1561.7
2019-Aug-17 02:00N 43°12' W 070°00'21 1.6 180 / 101018.7 5.4 19.017.520.0
2019-Aug-16 12:45N 43°33' W 070°07'3817.4
2019-Aug-16 10:32N 43°24' W 069°15'220.7
2019-Aug-16 10:27N 43°24' W 069°13'1020.5
2019-Aug-16 09:59N 43°23' W 068°59'1020.7
2019-Aug-16 09:29N 43°22' W 068°45'1020.2
2019-Aug-16 09:00N 43°21' W 068°32'1020.2
2019-Aug-16 08:30N 43°20' W 068°18'1120.3
2019-Aug-16 07:57N 43°19' W 068°03'2525.9
2019-Aug-16 07:00N 43°12' W 067°30'8817.6 180 / 51018.5 5.4 17.015.420.0
2019-Aug-16 02:00N 43°06' W 065°30'11722.3 320 / 71018.8 0.3 14.014.0 9.0
2019-Aug-15 20:46N 44°23' W 063°28'618.7
2019-Aug-15 20:26N 44°29' W 063°30'613.1
2019-Aug-15 20:00N 44°34' W 063°32'4 8.9
2019-Aug-15 19:30N 44°38' W 063°34'0 0.4
2019-Aug-15 19:00N 44°38' W 063°34'0 0.0
2019-Aug-15 18:30N 44°38' W 063°34'0 0.0
2019-Aug-15 18:00N 44°38' W 063°34'0 0.0
2019-Aug-15 17:30N 44°38' W 063°34'0 0.0
2019-Aug-15 17:00N 44°38' W 063°34'0 0.0
2019-Aug-15 16:30N 44°38' W 063°34'0 0.0
2019-Aug-15 16:00N 44°38' W 063°34'0 0.0
2019-Aug-15 15:30N 44°38' W 063°34'0 0.0
2019-Aug-15 15:00N 44°38' W 063°34'0 0.0
2019-Aug-15 14:30N 44°38' W 063°34'0 0.0
2019-Aug-15 14:00N 44°38' W 063°34'0 0.0
2019-Aug-15 13:30N 44°38' W 063°34'0 0.0
2019-Aug-15 13:00N 44°38' W 063°34'0 0.0
2019-Aug-15 12:30N 44°38' W 063°34'0 0.0
2019-Aug-15 12:00N 44°38' W 063°34'0 0.0
2019-Aug-15 11:30N 44°38' W 063°34'0 0.0
2019-Aug-15 11:00N 44°38' W 063°34'0 0.0
2019-Aug-15 10:30N 44°38' W 063°34'0 0.0
2019-Aug-15 10:00N 44°38' W 063°34'0 0.0
2019-Aug-15 09:30N 44°38' W 063°34'2 4.9
2019-Aug-15 09:00N 44°36' W 063°32'611.6
2019-Aug-15 08:30N 44°31' W 063°30'510.5
2019-Aug-15 08:01N 44°28' W 063°24'917.7
2019-Aug-15 07:30N 44°27' W 063°11'918.1
2019-Aug-15 07:00N 44°28' W 062°59'1018.1
2019-Aug-15 06:29N 44°28' W 062°45'1319.7
2019-Aug-15 05:49N 44°32' W 062°28'620.6
2019-Aug-15 05:31N 44°35' W 062°20'1020.6
2019-Aug-15 05:01N 44°38' W 062°06'1020.5
2019-Aug-15 04:31N 44°42' W 061°53'1020.4
2019-Aug-15 04:00N 44°46' W 061°40'2220.0
2019-Aug-15 02:53N 44°55' W 061°10'2919.7
2019-Aug-15 01:26N 45°11' W 060°37'100 2.1
2019-Aug-13 02:00N 46°48' W 061°12'25414.9 230 / 221006.610.8
2019-Aug-12 09:00N 49°12' W 066°24'   250 / 221003.810.8 16.012.713.0

Dump ship's entire track history